Time;durP1;ratioP1;P1;durP2;ratioP2;P2;SDS_P1;SDS_P2;PMS_P1;PMS_P2;Temp;Humidity;BMP_temperature;BMP_pressure;BME280_temperature;BME280_humidity;BME280_pressure;Samples;Min_cycle;Max_cycle;Signal;HPM_P1;HPM_P2
2022/10/06 00:01:12;;;;;;;15.83;2.10;;;11.80;94.30;;;;;;4965762;28;20495;-75
2022/10/06 00:03:38;;;;;;;7.10;1.30;;;11.80;94.50;;;;;;4948766;28;20309;-75
2022/10/06 00:06:05;;;;;;;8.87;1.30;;;11.80;94.60;;;;;;4934536;28;20318;-75
2022/10/06 00:08:33;;;;;;;10.20;1.30;;;11.70;94.90;;;;;;4949746;28;21039;-74
2022/10/06 00:10:59;;;;;;;7.23;1.13;;;11.70;94.90;;;;;;4949369;28;20357;-75
2022/10/06 00:13:26;;;;;;;11.30;2.10;;;11.70;95.00;;;;;;4969411;28;20286;-75
2022/10/06 00:15:52;;;;;;;9.50;1.20;;;11.70;94.90;;;;;;4980396;28;20410;-75
2022/10/06 00:18:18;;;;;;;11.33;1.50;;;11.70;94.60;;;;;;4978931;28;20277;-75
2022/10/06 00:20:44;;;;;;;6.57;0.70;;;11.60;94.70;;;;;;4964500;28;20054;-75
2022/10/06 00:23:10;;;;;;;9.83;1.53;;;11.60;94.40;;;;;;4953067;28;20137;-74
2022/10/06 00:25:36;;;;;;;7.87;1.10;;;11.60;94.40;;;;;;4979757;28;20360;-74
2022/10/06 00:28:02;;;;;;;6.73;1.60;;;11.70;94.00;;;;;;4975419;28;20763;-74
2022/10/06 00:30:30;;;;;;;8.40;1.57;;;11.70;93.70;;;;;;4975072;28;20041;-74
2022/10/06 00:33:02;;;;;;;12.67;1.80;;;11.60;93.40;;;;;;4977800;28;20290;-74
2022/10/06 00:35:33;;;;;;;12.70;1.80;;;11.60;92.90;;;;;;4961830;28;20356;-75
2022/10/06 00:38:00;;;;;;;8.10;1.27;;;11.60;93.20;;;;;;4980524;28;20301;-74
2022/10/06 00:40:26;;;;;;;7.70;1.00;;;11.50;92.90;;;;;;4943668;28;20299;-74
2022/10/06 00:42:55;;;;;;;11.00;1.30;;;11.50;92.80;;;;;;4970101;28;20337;-74
2022/10/06 00:45:24;;;;;;;9.80;1.53;;;11.50;92.70;;;;;;4967883;28;20321;-74
2022/10/06 00:47:50;;;;;;;10.73;0.77;;;11.50;92.10;;;;;;4971698;28;20284;-74
2022/10/06 00:50:16;;;;;;;8.63;1.50;;;11.50;92.20;;;;;;4951215;28;20290;-74
2022/10/06 00:52:42;;;;;;;10.63;1.23;;;11.50;92.00;;;;;;4972108;28;20292;-74
2022/10/06 00:55:08;;;;;;;11.53;1.13;;;11.50;92.30;;;;;;4961469;28;20649;-74
2022/10/06 00:57:39;;;;;;;11.80;1.43;;;11.50;92.40;;;;;;4957413;28;20553;-74
2022/10/06 01:00:06;;;;;;;18.13;1.97;;;11.40;92.40;;;;;;4979312;28;20477;-75
2022/10/06 01:02:47;;;;;;;11.03;1.00;;;11.40;92.00;;;;;;4982241;28;20344;-74
2022/10/06 01:05:19;;;;;;;5.35;0.93;;;11.40;92.30;;;;;;4959786;28;20296;-74
2022/10/06 01:07:45;;;;;;;13.40;1.03;;;11.40;91.70;;;;;;4959866;28;20486;-74
2022/10/06 01:10:10;;;;;;;11.63;2.27;;;11.40;91.60;;;;;;4962996;28;20282;-74
2022/10/06 01:12:37;;;;;;;10.80;1.13;;;11.40;91.30;;;;;;4965862;28;20452;-74
2022/10/06 01:15:03;;;;;;;7.77;1.37;;;11.30;91.40;;;;;;4968346;28;20042;-74
2022/10/06 01:17:42;;;;;;;11.00;0.90;;;11.30;90.50;;;;;;4965845;28;20695;-74
2022/10/06 01:20:11;;;;;;;8.40;0.83;;;11.30;90.20;;;;;;4971678;28;20305;-74
2022/10/06 01:22:54;;;;;;;11.73;1.50;;;11.30;89.80;;;;;;4977191;28;20344;-74
2022/10/06 01:25:21;;;;;;;7.97;1.37;;;11.20;89.80;;;;;;4981887;28;20277;-74
2022/10/06 01:27:52;;;;;;;9.30;1.67;;;11.20;89.80;;;;;;4967968;28;20706;-74
2022/10/06 01:30:25;;;;;;;10.63;1.37;;;11.20;89.30;;;;;;4966369;28;20647;-73
2022/10/06 01:32:51;;;;;;;7.47;1.20;;;11.20;89.30;;;;;;4967826;28;20869;-74
2022/10/06 01:35:17;;;;;;;13.10;1.30;;;11.20;89.30;;;;;;4969050;28;20317;-74
2022/10/06 01:37:42;;;;;;;7.18;1.00;;;11.20;89.30;;;;;;4968272;28;20054;-74
2022/10/06 01:40:09;;;;;;;11.30;1.57;;;11.20;89.40;;;;;;4960266;28;20042;-74
2022/10/06 01:42:35;;;;;;;9.70;0.77;;;11.20;89.50;;;;;;4980010;28;20038;-74
2022/10/06 01:45:01;;;;;;;13.83;1.47;;;11.10;89.60;;;;;;4967744;28;20046;-74
2022/10/06 01:47:27;;;;;;;8.27;1.30;;;11.20;88.90;;;;;;4970398;28;20285;-74
2022/10/06 01:49:53;;;;;;;10.20;1.23;;;11.20;88.90;;;;;;4982326;28;20292;-74
2022/10/06 01:52:19;;;;;;;7.83;1.60;;;11.20;88.20;;;;;;4965173;28;20042;-74
2022/10/06 01:54:45;;;;;;;6.80;0.97;;;11.20;88.50;;;;;;4967826;28;20043;-74
2022/10/06 01:57:10;;;;;;;7.70;1.23;;;11.20;88.60;;;;;;4939612;28;20296;-74
2022/10/06 01:59:36;;;;;;;6.00;1.47;;;11.20;88.30;;;;;;4969035;28;20137;-74
2022/10/06 02:02:03;;;;;;;7.57;1.20;;;11.10;88.80;;;;;;4950913;28;20137;-74
2022/10/06 02:04:29;;;;;;;11.90;1.70;;;11.10;88.30;;;;;;4951809;28;20129;-74
2022/10/06 02:06:55;;;;;;;9.87;1.10;;;11.10;87.60;;;;;;4977486;28;20042;-74
2022/10/06 02:09:22;;;;;;;5.20;1.50;;;11.10;87.90;;;;;;4985010;28;20369;-74
2022/10/06 02:11:48;;;;;;;10.32;1.20;;;11.10;88.00;;;;;;4983968;28;20043;-74
2022/10/06 02:14:14;;;;;;;9.70;1.20;;;11.10;88.10;;;;;;4985996;28;20119;-74
2022/10/06 02:16:40;;;;;;;9.85;1.10;;;11.20;87.40;;;;;;4983621;28;20057;-73
2022/10/06 02:19:06;;;;;;;9.03;1.47;;;11.20;87.70;;;;;;4968411;28;20042;-73
2022/10/06 02:21:32;;;;;;;8.67;1.30;;;11.30;87.50;;;;;;4950854;28;20137;-74
2022/10/06 02:23:57;;;;;;;9.20;1.42;;;11.30;87.40;;;;;;4966885;28;20043;-73
2022/10/06 02:26:23;;;;;;;6.97;0.90;;;11.30;87.70;;;;;;4981687;28;20108;-74
2022/10/06 02:28:49;;;;;;;8.37;0.90;;;11.30;87.20;;;;;;4958517;28;20069;-74
2022/10/06 02:31:15;;;;;;;10.93;1.07;;;11.30;87.00;;;;;;4932463;29;20039;-74
2022/10/06 02:33:42;;;;;;;9.07;1.10;;;11.30;87.20;;;;;;4978126;28;20069;-73
2022/10/06 02:36:11;;;;;;;12.87;1.73;;;11.30;87.10;;;;;;4982590;28;20300;-74
2022/10/06 02:38:37;;;;;;;9.93;0.98;;;11.20;87.60;;;;;;4983129;28;20921;-74
2022/10/06 02:41:03;;;;;;;12.50;1.13;;;11.20;87.60;;;;;;4966727;28;20446;-74
2022/10/06 02:43:30;;;;;;;8.63;1.10;;;11.30;87.80;;;;;;4966354;28;20094;-74
2022/10/06 02:45:58;;;;;;;11.07;1.37;;;11.30;88.00;;;;;;4956350;28;20111;-74
2022/10/06 02:48:25;;;;;;;9.40;1.47;;;11.30;88.20;;;;;;4968666;28;20289;-74
2022/10/06 02:51:01;;;;;;;7.93;1.25;;;11.30;88.00;;;;;;4939732;28;20296;-74
2022/10/06 02:53:27;;;;;;;6.97;1.00;;;11.30;87.70;;;;;;4970346;28;20121;-73
2022/10/06 02:56:05;;;;;;;8.80;1.47;;;11.30;87.90;;;;;;4976183;28;20088;-73
2022/10/06 02:58:31;;;;;;;11.17;1.63;;;11.20;87.90;;;;;;4962364;28;20282;-74
2022/10/06 03:01:09;;;;;;;8.63;1.33;;;11.20;88.00;;;;;;4958076;28;20294;-74
2022/10/06 03:03:35;;;;;;;9.70;1.30;;;11.20;88.00;;;;;;4980727;28;20050;-74
2022/10/06 03:06:22;;;;;;;8.32;1.10;;;11.10;88.50;;;;;;4962033;28;20283;-74
2022/10/06 03:08:57;;;;;;;8.48;1.20;;;11.00;89.00;;;;;;4963263;28;20232;-73
2022/10/06 03:11:25;;;;;;;8.85;1.33;;;10.90;89.20;;;;;;4970887;28;20451;-73
2022/10/06 03:13:52;;;;;;;7.85;1.60;;;10.90;89.30;;;;;;4964688;28;20042;-73
2022/10/06 03:16:23;;;;;;;7.53;1.10;;;10.80;89.20;;;;;;4962896;28;20047;-73
2022/10/06 03:18:51;;;;;;;5.65;1.10;;;10.80;89.00;;;;;;4980614;28;20458;-73
2022/10/06 03:21:18;;;;;;;11.35;1.23;;;10.80;88.60;;;;;;4963056;28;20055;-73
2022/10/06 03:23:46;;;;;;;4.85;0.90;;;10.80;88.40;;;;;;4980243;28;20732;-73
2022/10/06 03:26:14;;;;;;;5.82;1.40;;;10.90;87.80;;;;;;4965557;28;20157;-73
2022/10/06 03:28:40;;;;;;;8.38;2.25;;;10.90;87.90;;;;;;4954447;28;20633;-73
2022/10/06 03:31:06;;;;;;;11.38;1.08;;;10.90;87.80;;;;;;4946409;28;20038;-74
2022/10/06 03:33:33;;;;;;;9.57;1.50;;;11.00;87.80;;;;;;4966537;28;20080;-73
2022/10/06 03:36:04;;;;;;;8.75;1.10;;;11.00;87.50;;;;;;4979868;28;20065;-73
2022/10/06 03:38:31;;;;;;;6.68;0.90;;;11.10;87.30;;;;;;4982971;28;20052;-73
2022/10/06 03:41:08;;;;;;;11.15;1.17;;;11.10;87.30;;;;;;4960367;28;20034;-73
2022/10/06 03:43:35;;;;;;;11.68;1.42;;;11.10;87.50;;;;;;4981388;28;20097;-73
2022/10/06 03:46:02;;;;;;;12.90;1.23;;;11.00;88.00;;;;;;4948845;28;20085;-73
2022/10/06 03:48:30;;;;;;;12.25;1.55;;;11.00;88.10;;;;;;4949510;28;20097;-73
2022/10/06 03:50:58;;;;;;;9.13;0.95;;;11.00;88.10;;;;;;4973903;28;20047;-73
2022/10/06 03:53:26;;;;;;;9.85;1.65;;;10.90;88.10;;;;;;4980610;28;20125;-74
2022/10/06 03:56:04;;;;;;;7.45;1.10;;;10.90;88.30;;;;;;4930294;29;20043;-74
2022/10/06 03:58:31;;;;;;;12.25;1.52;;;10.90;88.10;;;;;;4959746;28;20513;-74
2022/10/06 04:01:06;;;;;;;11.55;1.80;;;11.00;87.90;;;;;;4984000;28;20179;-74
2022/10/06 04:03:33;;;;;;;11.40;1.58;;;11.00;88.10;;;;;;4981856;28;20046;-74
2022/10/06 04:06:00;;;;;;;13.38;1.30;;;11.00;87.80;;;;;;4979612;28;20035;-74
2022/10/06 04:08:28;;;;;;;10.65;1.67;;;11.10;88.30;;;;;;4980442;28;20041;-74
2022/10/06 04:10:54;;;;;;;11.40;1.30;;;11.20;88.00;;;;;;4973093;28;20125;-74
2022/10/06 04:13:21;;;;;;;8.07;1.40;;;11.20;88.40;;;;;;4949038;28;20043;-74
2022/10/06 04:15:47;;;;;;;15.35;1.50;;;11.20;88.20;;;;;;4929353;29;20047;-73
2022/10/06 04:18:14;;;;;;;11.20;1.50;;;11.20;88.50;;;;;;4980527;28;20453;-73
2022/10/06 04:20:40;;;;;;;16.05;1.40;;;11.20;88.20;;;;;;4965456;28;20050;-73
2022/10/06 04:23:06;;;;;;;11.37;1.20;;;11.30;88.00;;;;;;4976309;28;20547;-73
2022/10/06 04:25:33;;;;;;;7.60;1.33;;;11.30;87.20;;;;;;4942592;28;20285;-73
2022/10/06 04:27:59;;;;;;;8.68;1.95;;;11.30;87.20;;;;;;4936070;28;20364;-73
2022/10/06 04:30:25;;;;;;;12.03;1.67;;;11.30;87.10;;;;;;4965299;28;20539;-73
2022/10/06 04:32:52;;;;;;;11.10;1.47;;;11.30;87.50;;;;;;4981581;28;20062;-73
2022/10/06 04:35:19;;;;;;;8.53;1.40;;;11.20;87.60;;;;;;4980005;28;20367;-74
2022/10/06 04:37:45;;;;;;;12.25;1.95;;;11.10;87.70;;;;;;4970886;28;20278;-74
2022/10/06 04:40:12;;;;;;;9.90;1.50;;;11.10;87.70;;;;;;4956800;28;20043;-74
2022/10/06 04:42:38;;;;;;;10.80;1.55;;;11.10;88.10;;;;;;4948954;28;20058;-74
2022/10/06 04:45:05;;;;;;;12.50;1.98;;;11.00;88.20;;;;;;4958717;28;20038;-74
2022/10/06 04:47:31;;;;;;;15.63;1.75;;;11.00;88.10;;;;;;4963111;28;20053;-74
2022/10/06 04:49:57;;;;;;;13.63;1.50;;;11.00;88.10;;;;;;4957165;28;20097;-74
2022/10/06 04:52:23;;;;;;;11.23;1.47;;;10.90;88.70;;;;;;4948283;28;20317;-74
2022/10/06 04:54:48;;;;;;;9.53;1.43;;;10.80;88.70;;;;;;4965777;28;20046;-74
2022/10/06 04:57:14;;;;;;;10.53;1.33;;;10.80;89.00;;;;;;4970284;28;20380;-74
2022/10/06 05:02:24;;;;;;;8.63;1.30;;;10.80;89.50;;;;;;4958974;28;20128;-74
2022/10/06 05:04:49;;;;;;;12.40;1.57;;;10.80;89.60;;;;;;4966026;28;20129;-73
2022/10/06 05:07:15;;;;;;;11.50;1.83;;;10.80;89.70;;;;;;4976321;28;20038;-73
2022/10/06 05:09:41;;;;;;;14.70;1.70;;;10.80;89.70;;;;;;4969032;28;20042;-73
2022/10/06 05:12:09;;;;;;;12.37;1.60;;;10.90;89.30;;;;;;4960640;28;20519;-73
2022/10/06 05:14:34;;;;;;;10.68;1.30;;;10.90;89.40;;;;;;4968268;28;20129;-73
2022/10/06 05:17:00;;;;;;;12.23;1.33;;;10.90;89.70;;;;;;4960059;28;20514;-73
2022/10/06 05:19:26;;;;;;;15.03;1.87;;;10.90;89.30;;;;;;4941464;28;20537;-73
2022/10/06 05:21:51;;;;;;;12.33;1.37;;;11.00;88.90;;;;;;4963355;28;20535;-73
2022/10/06 05:24:17;;;;;;;10.53;1.97;;;11.10;88.60;;;;;;4949952;28;20611;-73
2022/10/06 05:26:43;;;;;;;9.53;1.83;;;11.10;87.80;;;;;;4979295;28;20513;-73
2022/10/06 05:29:08;;;;;;;7.87;1.43;;;11.20;87.90;;;;;;4952977;28;20164;-73
2022/10/06 05:31:39;;;;;;;9.30;1.20;;;11.10;87.90;;;;;;4959627;28;20294;-73
2022/10/06 05:34:06;;;;;;;10.43;0.95;;;11.10;87.90;;;;;;4969882;28;20085;-73
2022/10/06 05:36:32;;;;;;;10.80;1.53;;;11.10;88.40;;;;;;4969894;28;20391;-73
2022/10/06 05:38:59;;;;;;;14.97;1.33;;;11.10;88.50;;;;;;4953521;28;20649;-74
2022/10/06 05:41:29;;;;;;;13.27;1.60;;;11.10;88.80;;;;;;4959260;28;20295;-74
2022/10/06 05:43:57;;;;;;;8.32;1.83;;;11.10;89.30;;;;;;4966536;28;20313;-73
2022/10/06 05:46:27;;;;;;;13.87;1.60;;;11.10;89.60;;;;;;4975628;28;20046;-73
2022/10/06 05:49:06;;;;;;;8.27;1.55;;;11.10;89.70;;;;;;4967558;28;20536;-73
2022/10/06 05:51:34;;;;;;;13.52;2.08;;;11.00;89.90;;;;;;4957429;28;20498;-74
2022/10/06 05:54:00;;;;;;;14.07;1.20;;;11.00;89.70;;;;;;4943348;29;20082;-74
2022/10/06 05:56:28;;;;;;;11.35;1.50;;;11.00;90.10;;;;;;4966917;28;20061;-74
2022/10/06 05:58:55;;;;;;;9.90;1.63;;;11.00;89.90;;;;;;4967280;28;20085;-74
2022/10/06 06:01:24;;;;;;;8.10;1.30;;;11.10;90.30;;;;;;4985947;28;20452;-73
2022/10/06 06:03:56;;;;;;;7.80;1.10;;;11.10;90.20;;;;;;4985685;28;20658;-73
2022/10/06 06:06:27;;;;;;;9.30;1.30;;;11.20;89.80;;;;;;4976774;28;20357;-73
2022/10/06 06:09:17;;;;;;;9.87;1.23;;;11.20;89.80;;;;;;4973446;28;20285;-73
2022/10/06 06:11:46;;;;;;;12.07;1.30;;;11.20;89.50;;;;;;4956214;28;20788;-73
2022/10/06 06:14:14;;;;;;;6.47;1.20;;;11.20;89.80;;;;;;4969789;28;20052;-73
2022/10/06 06:16:41;;;;;;;8.80;1.35;;;11.20;90.10;;;;;;4971801;28;20795;-73
2022/10/06 06:19:09;;;;;;;7.63;1.40;;;11.20;90.30;;;;;;4970155;28;20161;-73
2022/10/06 06:21:35;;;;;;;10.67;1.57;;;11.20;90.40;;;;;;4967096;28;20312;-73
2022/10/06 06:24:02;;;;;;;13.25;2.00;;;11.10;90.60;;;;;;4985383;28;20310;-73
2022/10/06 06:26:30;;;;;;;12.13;2.17;;;11.10;90.90;;;;;;4966991;28;20043;-73
2022/10/06 06:29:05;;;;;;;8.33;2.03;;;11.00;91.20;;;;;;4951851;28;20290;-73
2022/10/06 06:31:33;;;;;;;15.15;2.30;;;11.00;91.80;;;;;;4955315;28;20329;-73
2022/10/06 06:34:01;;;;;;;15.30;2.13;;;11.00;92.40;;;;;;4966965;28;20738;-73
2022/10/06 06:36:36;;;;;;;13.00;1.40;;;11.00;92.70;;;;;;4963650;28;20278;-73
2022/10/06 06:39:07;;;;;;;10.77;1.45;;;10.90;93.10;;;;;;4950934;28;20293;-73
2022/10/06 06:41:36;;;;;;;8.83;1.60;;;11.00;93.20;;;;;;4959582;28;20343;-73
2022/10/06 06:44:03;;;;;;;12.82;1.58;;;11.00;93.50;;;;;;4952829;28;20310;-73
2022/10/06 06:46:30;;;;;;;9.83;1.30;;;11.10;93.60;;;;;;4981576;28;20034;-73
2022/10/06 06:48:58;;;;;;;9.40;1.67;;;11.20;93.60;;;;;;4945344;28;20328;-73
2022/10/06 06:51:24;;;;;;;17.93;1.63;;;11.20;93.50;;;;;;4948797;28;20332;-73
2022/10/06 06:53:51;;;;;;;11.57;1.30;;;11.20;93.20;;;;;;4965704;28;20317;-73
2022/10/06 06:56:17;;;;;;;7.20;1.23;;;11.20;93.20;;;;;;4951331;28;20083;-73
2022/10/06 06:58:46;;;;;;;10.73;1.33;;;11.30;92.80;;;;;;4955064;28;20100;-73
2022/10/06 07:01:15;;;;;;;10.80;1.50;;;11.30;93.00;;;;;;4976648;28;20706;-73
2022/10/06 07:03:42;;;;;;;7.43;1.13;;;11.30;93.30;;;;;;4983197;28;20309;-73
2022/10/06 07:06:10;;;;;;;11.90;1.73;;;11.40;93.40;;;;;;4981631;28;20288;-73
2022/10/06 07:08:37;;;;;;;9.30;1.40;;;11.60;93.10;;;;;;4969410;28;20285;-74
2022/10/06 07:11:11;;;;;;;8.10;1.60;;;11.60;92.70;;;;;;4973983;28;20385;-74
2022/10/06 07:13:36;;;;;;;12.17;1.70;;;11.70;92.00;;;;;;4951012;28;20286;-73
2022/10/06 07:27:01;;;;;;;7.77;1.93;;;11.90;91.70;;;;;;4984365;28;20943;-74
2022/10/06 07:29:27;;;;;;;7.87;1.40;;;12.00;91.30;;;;;;4968150;28;20357;-75
2022/10/06 07:31:53;;;;;;;11.03;1.50;;;12.00;91.00;;;;;;4984935;28;20566;-74
2022/10/06 07:34:20;;;;;;;6.47;0.90;;;12.10;90.50;;;;;;4970799;28;20064;-74
2022/10/06 07:36:52;;;;;;;11.33;1.30;;;12.20;90.80;;;;;;4984039;28;20316;-74
2022/10/06 07:39:19;;;;;;;12.73;1.43;;;12.30;90.20;;;;;;4966249;28;20291;-75
2022/10/06 07:41:45;;;;;;;6.83;1.50;;;12.30;90.00;;;;;;4960407;28;20293;-74
2022/10/06 07:44:10;;;;;;;12.27;1.20;;;12.40;89.90;;;;;;4963106;28;20302;-75
2022/10/06 07:46:36;;;;;;;11.63;1.67;;;12.50;89.90;;;;;;4962974;28;20347;-75
2022/10/06 07:49:02;;;;;;;12.23;1.47;;;12.50;88.90;;;;;;4966336;28;20343;-74
2022/10/06 07:51:28;;;;;;;8.57;1.10;;;12.60;88.10;;;;;;4959825;28;20121;-75
2022/10/06 07:53:54;;;;;;;11.10;1.37;;;12.70;87.40;;;;;;4967820;28;20054;-74
2022/10/06 07:56:20;;;;;;;6.23;0.73;;;12.80;86.90;;;;;;4950825;28;20034;-75
2022/10/06 07:58:47;;;;;;;9.00;1.30;;;12.80;86.70;;;;;;4953596;28;20153;-75
2022/10/06 08:01:14;;;;;;;10.77;1.37;;;12.90;85.20;;;;;;4965692;28;20292;-74
2022/10/06 08:03:43;;;;;;;10.67;1.47;;;13.00;84.00;;;;;;4942290;29;20306;-74
2022/10/06 08:06:13;;;;;;;8.03;1.20;;;13.00;84.00;;;;;;4957011;28;20336;-74
2022/10/06 08:08:39;;;;;;;11.77;1.90;;;13.10;84.90;;;;;;4966691;28;20309;-73
2022/10/06 08:11:06;;;;;;;10.40;1.53;;;13.10;84.20;;;;;;4968980;28;20296;-74
2022/10/06 08:13:35;;;;;;;8.67;1.40;;;13.20;84.00;;;;;;4952708;28;20281;-74
2022/10/06 08:16:06;;;;;;;9.27;1.37;;;13.30;83.50;;;;;;4956783;28;20393;-74
2022/10/06 08:18:32;;;;;;;5.87;1.17;;;13.30;82.50;;;;;;4969885;28;20400;-72
2022/10/06 08:20:58;;;;;;;9.03;0.97;;;13.40;82.50;;;;;;4946986;28;20658;-74
2022/10/06 08:23:25;;;;;;;12.37;1.73;;;13.40;82.10;;;;;;4956404;28;20306;-74
2022/10/06 08:25:53;;;;;;;6.70;1.17;;;13.50;82.40;;;;;;4966667;28;20766;-73
2022/10/06 08:28:20;;;;;;;12.20;2.50;;;13.60;81.80;;;;;;4968289;28;20326;-74
2022/10/06 08:30:50;;;;;;;11.17;1.10;;;13.70;81.50;;;;;;4967696;28;20282;-74
2022/10/06 08:33:15;;;;;;;10.53;1.13;;;13.70;81.40;;;;;;4967751;28;20282;-75
2022/10/06 08:35:41;;;;;;;13.40;1.40;;;13.70;80.00;;;;;;4949348;28;20881;-73
2022/10/06 08:38:07;;;;;;;9.70;1.47;;;13.70;78.20;;;;;;4976524;28;20038;-74
2022/10/06 08:40:33;;;;;;;9.40;1.43;;;13.80;80.00;;;;;;4973416;28;20040;-73
2022/10/06 08:43:01;;;;;;;11.00;1.10;;;13.80;80.40;;;;;;4953198;28;20051;-73
2022/10/06 08:45:34;;;;;;;6.23;1.20;;;13.80;79.80;;;;;;4950056;28;20342;-74
2022/10/06 08:48:09;;;;;;;5.17;0.87;;;13.90;79.40;;;;;;4969441;28;20368;-74
2022/10/06 08:50:43;;;;;;;10.32;1.27;;;13.90;77.70;;;;;;4969228;28;20313;-73
2022/10/06 08:53:21;;;;;;;8.13;1.13;;;13.90;78.20;;;;;;4971348;28;20051;-74
2022/10/06 08:56:04;;;;;;;9.33;1.40;;;14.00;77.80;;;;;;4968443;28;20286;-74
2022/10/06 08:58:39;;;;;;;10.97;1.50;;;14.00;77.50;;;;;;4969134;28;20278;-72
2022/10/06 09:01:13;;;;;;;6.78;1.10;;;14.00;78.20;;;;;;4960966;28;20417;-73
2022/10/06 09:03:39;;;;;;;11.83;0.90;;;14.10;78.30;;;;;;4973486;28;20042;-73
2022/10/06 09:06:12;;;;;;;12.87;1.37;;;14.20;78.20;;;;;;4970651;28;20286;-73
2022/10/06 09:08:57;;;;;;;12.20;1.27;;;14.30;77.00;;;;;;4987358;28;20042;-73
2022/10/06 09:11:28;;;;;;;10.33;1.20;;;14.30;75.60;;;;;;4967047;28;20694;-74
2022/10/06 09:14:03;;;;;;;11.60;1.60;;;14.30;76.40;;;;;;4965665;28;20342;-73
2022/10/06 09:16:37;;;;;;;9.15;1.33;;;14.40;75.40;;;;;;4965506;28;20289;-74
2022/10/06 09:19:21;;;;;;;6.97;1.40;;;14.40;75.60;;;;;;4960747;28;20043;-74
2022/10/06 09:21:50;;;;;;;7.93;1.07;;;14.40;74.70;;;;;;4969327;28;20298;-74
2022/10/06 09:24:37;;;;;;;8.60;2.00;;;14.40;75.40;;;;;;4962936;28;20302;-74
2022/10/06 09:27:14;;;;;;;10.33;1.50;;;14.40;75.00;;;;;;4952065;28;20361;-74
2022/10/06 09:29:39;;;;;;;7.70;1.03;;;14.40;74.90;;;;;;4953135;28;20806;-74
2022/10/06 09:32:05;;;;;;;9.13;1.00;;;14.30;75.40;;;;;;4951996;28;20301;-74
2022/10/06 09:34:47;;;;;;;10.50;1.53;;;14.40;74.60;;;;;;4945015;29;20530;-74
2022/10/06 09:37:13;;;;;;;12.17;1.17;;;14.50;75.50;;;;;;4952056;28;20042;-74
2022/10/06 09:39:46;;;;;;;9.83;1.37;;;14.70;74.40;;;;;;4958869;28;20624;-74
2022/10/06 09:42:17;;;;;;;13.63;1.27;;;14.70;72.30;;;;;;4950443;28;20290;-74
2022/10/06 09:44:55;;;;;;;9.10;1.27;;;14.70;73.60;;;;;;4967619;28;20301;-74
2022/10/06 09:47:31;;;;;;;5.37;1.30;;;14.80;74.10;;;;;;4971862;28;20278;-74
2022/10/06 09:50:21;;;;;;;7.73;0.90;;;14.90;72.00;;;;;;4969687;28;20296;-74
2022/10/06 09:53:04;;;;;;;5.43;0.73;;;15.00;71.40;;;;;;4975690;28;20281;-74
2022/10/06 09:55:32;;;;;;;10.47;1.27;;;15.00;71.30;;;;;;4983918;28;20297;-74
2022/10/06 09:58:00;;;;;;;8.27;1.33;;;15.00;72.00;;;;;;4968312;28;20362;-74
2022/10/06 10:00:27;;;;;;;8.00;1.53;;;14.90;69.10;;;;;;4974279;28;20284;-75
2022/10/06 10:03:01;;;;;;;11.70;1.20;;;14.90;67.90;;;;;;4971098;28;20365;-73
2022/10/06 10:05:44;;;;;;;8.80;0.60;;;14.90;67.20;;;;;;4972933;28;20289;-74
2022/10/06 10:08:16;;;;;;;10.33;1.00;;;14.90;66.50;;;;;;4956524;28;20427;-74
2022/10/06 10:10:42;;;;;;;6.90;0.87;;;15.00;68.80;;;;;;4974444;28;20797;-74
2022/10/06 10:13:24;;;;;;;8.33;0.77;;;15.10;68.40;;;;;;4971699;28;20294;-74
2022/10/06 10:16:00;;;;;;;7.67;0.90;;;15.10;67.10;;;;;;4954189;28;20561;-74
2022/10/06 10:18:29;;;;;;;6.80;0.67;;;15.20;68.00;;;;;;4963649;28;20306;-74
2022/10/06 10:21:04;;;;;;;6.07;0.87;;;15.30;67.30;;;;;;4971647;28;20302;-74
2022/10/06 10:23:35;;;;;;;6.63;1.03;;;15.30;65.30;;;;;;4958547;28;20298;-74
2022/10/06 10:26:14;;;;;;;8.13;0.73;;;15.20;65.30;;;;;;4954950;28;20078;-74
2022/10/06 10:28:54;;;;;;;9.20;1.37;;;15.30;65.50;;;;;;4967798;28;20357;-74
2022/10/06 10:31:37;;;;;;;13.10;1.03;;;15.20;65.80;;;;;;4954807;28;20282;-74
2022/10/06 10:34:17;;;;;;;10.00;1.20;;;15.30;66.90;;;;;;4951543;28;20293;-74
2022/10/06 10:36:58;;;;;;;5.70;0.50;;;15.30;67.90;;;;;;4971314;28;20348;-74
2022/10/06 10:39:32;;;;;;;7.97;0.77;;;15.40;67.20;;;;;;4969225;28;20282;-75
2022/10/06 10:42:04;;;;;;;11.40;1.40;;;15.40;66.10;;;;;;4970248;28;20849;-74
2022/10/06 10:44:40;;;;;;;5.43;1.00;;;15.40;65.30;;;;;;4966801;28;20340;-74
2022/10/06 10:47:26;;;;;;;9.23;0.97;;;15.40;65.20;;;;;;4971578;28;20611;-75
2022/10/06 10:49:57;;;;;;;;;;;15.40;67.30;;;;;;4969561;28;20638;-73
2022/10/06 10:52:27;;;;;;;11.17;0.97;;;15.30;65.70;;;;;;4970371;28;19925;-74
2022/10/06 10:55:13;;;;;;;7.83;1.00;;;15.30;66.20;;;;;;4966238;28;20298;-73
2022/10/06 10:57:40;;;;;;;9.00;1.08;;;15.40;66.70;;;;;;4954974;28;20298;-74
2022/10/06 11:00:11;;;;;;;5.70;0.60;;;15.50;66.00;;;;;;4963734;28;20066;-73
2022/10/06 11:02:39;;;;;;;7.73;0.50;;;15.50;65.90;;;;;;4964490;28;20273;-73
2022/10/06 11:05:29;;;;;;;8.93;0.77;;;15.60;66.40;;;;;;4976862;28;20309;-74
2022/10/06 11:08:24;;;;;;;6.70;0.60;;;15.60;66.10;;;;;;4967295;28;20326;-74
2022/10/06 11:10:58;;;;;;;5.20;0.73;;;15.70;66.10;;;;;;4968085;28;20642;-73
2022/10/06 11:13:44;;;;;;;7.63;0.93;;;15.80;65.40;;;;;;4972517;28;20105;-73
2022/10/06 11:16:28;;;;;;;8.97;1.17;;;15.70;64.20;;;;;;4951931;28;20293;-73
2022/10/06 11:18:57;;;;;;;6.57;0.80;;;15.70;63.90;;;;;;4977862;28;20325;-73
2022/10/06 11:21:31;;;;;;;4.87;0.50;;;15.70;64.80;;;;;;4974668;28;20302;-73
2022/10/06 11:24:11;;;;;;;9.25;0.85;;;15.70;63.20;;;;;;4951424;28;20694;-73
2022/10/06 11:26:47;;;;;;;13.93;1.30;;;15.70;64.30;;;;;;4966907;28;21166;-74
2022/10/06 11:29:42;;;;;;;7.70;1.23;;;15.70;63.40;;;;;;4972159;28;20694;-73
2022/10/06 11:32:22;;;;;;;9.10;1.27;;;15.70;62.20;;;;;;4982630;28;20348;-73
2022/10/06 11:34:48;;;;;;;6.23;0.70;;;15.70;62.50;;;;;;4967819;28;20287;-73
2022/10/06 11:37:36;;;;;;;6.10;0.77;;;15.70;63.30;;;;;;4946246;28;21177;-74
2022/10/06 11:40:30;;;;;;;4.43;0.90;;;15.70;63.70;;;;;;4966614;28;20959;-74
2022/10/06 11:43:16;;;;;;;6.43;0.67;;;15.70;62.60;;;;;;4966538;28;20293;-73
2022/10/06 11:46:00;;;;;;;3.50;0.30;;;15.80;60.60;;;;;;4947255;28;20318;-74
2022/10/06 11:48:28;;;;;;;7.00;0.90;;;15.80;61.20;;;;;;4964697;28;20286;-74
2022/10/06 11:50:56;;;;;;;5.10;0.70;;;16.00;63.80;;;;;;4965836;28;20290;-73
2022/10/06 11:53:30;;;;;;;7.53;1.30;;;16.20;64.20;;;;;;4950640;28;20827;-73
2022/10/06 11:56:15;;;;;;;6.00;0.60;;;16.30;64.00;;;;;;4948002;28;20651;-72
2022/10/06 11:58:50;;;;;;;6.40;0.63;;;16.30;64.20;;;;;;4965688;28;20406;-72
2022/10/06 12:01:35;;;;;;;5.60;0.73;;;16.30;62.30;;;;;;4965967;28;20305;-72
2022/10/06 12:04:21;;;;;;;6.07;0.60;;;16.20;62.90;;;;;;4979103;28;20050;-72
2022/10/06 12:06:46;;;;;;;6.47;0.60;;;16.30;63.10;;;;;;4972295;28;20058;-72
2022/10/06 12:09:24;;;;;;;10.57;0.83;;;16.20;62.70;;;;;;4968965;28;20273;-72
2022/10/06 12:11:55;;;;;;;5.93;0.70;;;16.20;63.30;;;;;;4970610;28;20450;-72
2022/10/06 12:14:39;;;;;;;7.70;0.70;;;16.20;62.50;;;;;;4966635;28;20286;-73
2022/10/06 12:17:18;;;;;;;7.10;1.10;;;16.20;61.00;;;;;;4989688;28;20286;-73
2022/10/06 12:20:07;;;;;;;8.00;0.70;;;16.20;62.40;;;;;;4966628;28;20286;-73
2022/10/06 12:23:19;;;;;;;9.03;1.17;;;16.10;62.00;;;;;;4975058;28;20592;-73
2022/10/06 12:25:54;;;;;;;6.60;0.50;;;16.30;61.30;;;;;;4963563;28;20278;-73
2022/10/06 12:28:20;;;;;;;;;;;16.30;61.30;;;;;;4987957;28;20357;-73
2022/10/06 12:31:04;;;;;;;9.20;0.87;;;16.20;61.90;;;;;;4982806;28;20107;-73
2022/10/06 12:33:38;;;;;;;8.13;0.70;;;16.40;61.70;;;;;;4980251;28;20065;-73
2022/10/06 12:36:16;;;;;;;7.40;0.85;;;16.40;61.50;;;;;;4980199;28;20777;-73
2022/10/06 12:39:01;;;;;;;5.97;0.80;;;16.40;61.50;;;;;;4982948;28;20046;-72
2022/10/06 12:41:54;;;;;;;6.38;0.90;;;16.40;61.40;;;;;;4973214;28;20286;-73
2022/10/06 12:44:41;;;;;;;7.57;0.83;;;16.40;61.20;;;;;;4979900;28;20034;-73
2022/10/06 12:47:19;;;;;;;9.03;1.00;;;16.40;61.10;;;;;;4964398;28;20290;-73
2022/10/06 12:49:47;;;;;;;7.30;1.10;;;16.40;60.80;;;;;;4974105;28;20297;-73
2022/10/06 12:52:17;;;;;;;5.27;0.50;;;16.30;59.90;;;;;;4979618;28;20320;-73
2022/10/06 12:54:54;;;;;;;7.40;0.73;;;16.30;59.30;;;;;;4981587;28;20282;-73
2022/10/06 12:57:20;;;;;;;6.20;0.60;;;16.30;60.30;;;;;;4975548;28;20318;-74
2022/10/06 12:59:48;;;;;;;5.53;0.80;;;16.40;60.20;;;;;;4964531;28;20410;-73
2022/10/06 13:02:25;;;;;;;11.23;1.47;;;16.50;60.20;;;;;;4965708;28;20051;-73
2022/10/06 13:04:59;;;;;;;5.00;0.70;;;16.60;59.70;;;;;;4972986;28;20302;-73
2022/10/06 13:07:29;;;;;;;6.00;1.00;;;16.50;59.90;;;;;;4974007;28;20360;-73
2022/10/06 13:10:19;;;;;;;7.13;0.80;;;16.40;59.70;;;;;;4981614;28;20845;-73
2022/10/06 13:12:47;;;;;;;8.03;1.17;;;16.40;60.20;;;;;;4983506;28;20752;-73
2022/10/06 13:15:18;;;;;;;5.47;0.93;;;16.40;61.80;;;;;;4964418;28;20281;-73